createdAt,value
2022-09-13T00:00:15.113Z,85
2022-09-13T00:05:15.106Z,85
2022-09-13T00:10:15.097Z,85
2022-09-13T00:15:15.102Z,85
2022-09-13T00:20:15.098Z,85
2022-09-13T00:25:15.109Z,85
2022-09-13T00:30:15.098Z,85
2022-09-13T00:35:15.104Z,85
2022-09-13T00:40:15.149Z,86
2022-09-13T00:45:15.104Z,86
2022-09-13T00:50:15.100Z,86
2022-09-13T00:55:15.099Z,86
2022-09-13T01:00:15.108Z,86
2022-09-13T01:05:15.114Z,86
2022-09-13T01:10:15.126Z,86
2022-09-13T01:15:15.109Z,86
2022-09-13T01:20:15.103Z,86
2022-09-13T01:25:15.107Z,86
2022-09-13T01:30:15.099Z,86
2022-09-13T01:35:15.105Z,86
2022-09-13T01:40:15.177Z,86
2022-09-13T01:45:15.104Z,86
2022-09-13T01:50:15.098Z,86
2022-09-13T01:55:15.111Z,86
2022-09-13T02:00:15.105Z,86
2022-09-13T02:05:15.114Z,86
2022-09-13T02:10:15.088Z,86
2022-09-13T02:15:15.110Z,87
2022-09-13T02:20:15.105Z,87
2022-09-13T02:25:15.105Z,87
2022-09-13T02:30:15.106Z,87
2022-09-13T02:35:15.111Z,87
2022-09-13T02:40:15.118Z,87
2022-09-13T02:45:15.105Z,87
2022-09-13T02:50:15.102Z,87
2022-09-13T02:55:15.112Z,87
2022-09-13T03:00:15.109Z,87
2022-09-13T03:05:15.105Z,87
2022-09-13T03:10:15.100Z,87
2022-09-13T03:15:15.101Z,87
2022-09-13T03:20:15.095Z,87
2022-09-13T03:25:15.098Z,87
2022-09-13T03:30:15.111Z,87
2022-09-13T03:35:15.103Z,87
2022-09-13T03:40:15.179Z,88
2022-09-13T03:45:15.095Z,88
2022-09-13T03:50:15.099Z,87
2022-09-13T03:55:15.102Z,87
2022-09-13T04:00:15.100Z,87
2022-09-13T04:05:15.093Z,87
2022-09-13T04:10:15.095Z,87
2022-09-13T04:15:15.102Z,87
2022-09-13T04:20:15.095Z,87
2022-09-13T04:25:15.103Z,87
2022-09-13T04:30:15.096Z,87
2022-09-13T04:35:15.104Z,87
2022-09-13T04:40:15.186Z,87
2022-09-13T04:45:15.106Z,87
2022-09-13T04:50:15.112Z,87
2022-09-13T04:55:15.108Z,87
2022-09-13T05:00:15.102Z,87
2022-09-13T05:05:15.138Z,88
2022-09-13T05:10:18.916Z,88
2022-09-13T05:15:15.108Z,88
2022-09-13T05:20:15.114Z,88
2022-09-13T05:25:15.108Z,88
2022-09-13T05:30:15.097Z,88
2022-09-13T05:35:15.106Z,88
2022-09-13T05:40:15.182Z,87
2022-09-13T05:45:15.108Z,87
2022-09-13T05:50:27.460Z,87
2022-09-13T05:55:15.099Z,87
2022-09-13T06:00:15.100Z,87
2022-09-13T06:05:15.102Z,87
2022-09-13T06:10:15.105Z,87
2022-09-13T06:15:15.099Z,87
2022-09-13T06:20:15.107Z,87
2022-09-13T06:25:15.111Z,87
2022-09-13T06:30:15.102Z,87
2022-09-13T06:35:15.119Z,86
2022-09-13T06:40:15.187Z,86
2022-09-13T06:45:15.116Z,86
2022-09-13T06:50:15.107Z,85
2022-09-13T06:55:15.103Z,85
2022-09-13T07:00:15.096Z,85
2022-09-13T07:05:15.117Z,84
2022-09-13T07:10:15.103Z,84
2022-09-13T07:15:15.108Z,83
2022-09-13T07:20:15.102Z,82
2022-09-13T07:25:15.107Z,82
2022-09-13T07:30:15.104Z,82
2022-09-13T07:35:15.122Z,80
2022-09-13T07:40:15.133Z,79
2022-09-13T07:45:15.119Z,78
2022-09-13T07:50:15.100Z,78
2022-09-13T07:55:15.104Z,78
2022-09-13T08:00:15.102Z,79
2022-09-13T08:05:15.116Z,79
2022-09-13T08:10:15.092Z,79
2022-09-13T08:15:15.112Z,79
2022-09-13T08:20:15.104Z,79
2022-09-13T08:25:15.109Z,79
2022-09-13T08:30:15.104Z,78
2022-09-13T08:35:15.101Z,77
2022-09-13T08:40:15.128Z,76
2022-09-13T08:45:15.105Z,75
2022-09-13T08:50:15.105Z,74
2022-09-13T08:55:15.106Z,73
2022-09-13T09:00:17.840Z,73
2022-09-13T09:05:15.100Z,73
2022-09-13T09:10:15.101Z,74
2022-09-13T09:15:15.096Z,75
2022-09-13T09:20:15.110Z,75
2022-09-13T09:25:15.110Z,75
2022-09-13T09:30:15.096Z,74
2022-09-13T09:35:15.111Z,74
2022-09-13T09:40:15.124Z,74
2022-09-13T09:45:15.104Z,74
2022-09-13T09:50:15.096Z,74
2022-09-13T09:55:15.122Z,74
2022-09-13T10:00:15.142Z,73
2022-09-13T10:05:15.105Z,71
2022-09-13T10:10:15.135Z,71
2022-09-13T10:15:15.115Z,69
2022-09-13T10:20:15.104Z,69
2022-09-13T10:25:15.138Z,68
2022-09-13T10:30:15.105Z,68
2022-09-13T10:35:15.111Z,67
2022-09-13T10:40:15.125Z,67
2022-09-13T10:45:15.104Z,67
2022-09-13T10:50:15.113Z,69
2022-09-13T10:55:15.106Z,71
2022-09-13T11:00:15.112Z,71
2022-09-13T11:05:15.107Z,72
2022-09-13T11:10:15.109Z,73
2022-09-13T11:15:15.106Z,73
2022-09-13T11:20:15.119Z,73
2022-09-13T11:25:15.107Z,73
2022-09-13T11:30:15.114Z,74
2022-09-13T11:35:15.103Z,75
2022-09-13T11:40:15.113Z,76
2022-09-13T11:45:18.141Z,76
2022-09-13T11:50:15.093Z,76
2022-09-13T11:55:15.104Z,76
2022-09-13T12:00:15.095Z,76
2022-09-13T12:05:23.392Z,77
2022-09-13T12:10:15.101Z,77
2022-09-13T12:15:15.105Z,77
2022-09-13T12:20:15.107Z,75
2022-09-13T12:25:15.115Z,75
2022-09-13T12:30:15.097Z,74
2022-09-13T12:35:15.107Z,73
2022-09-13T12:40:15.159Z,71
2022-09-13T12:45:15.108Z,71
2022-09-13T12:50:41.777Z,71
2022-09-13T12:55:29.610Z,70
2022-09-13T13:00:15.106Z,70
2022-09-13T13:05:15.101Z,69
2022-09-13T13:10:15.103Z,69
2022-09-13T13:15:15.107Z,68
2022-09-13T13:20:15.096Z,68
2022-09-13T13:25:15.099Z,66
2022-09-13T13:30:15.097Z,65
2022-09-13T13:35:15.107Z,64
2022-09-13T13:40:15.197Z,63
2022-09-13T13:45:15.105Z,64
2022-09-13T13:50:15.104Z,63
2022-09-13T13:55:15.106Z,63
2022-09-13T14:00:15.111Z,62
2022-09-13T14:05:15.129Z,63
2022-09-13T14:10:15.119Z,63
2022-09-13T14:15:15.106Z,64
2022-09-13T14:20:15.116Z,64
2022-09-13T14:25:15.160Z,63
2022-09-13T14:30:15.111Z,63
2022-09-13T14:35:15.136Z,63
2022-09-13T14:40:15.179Z,64
2022-09-13T14:45:15.109Z,65
2022-09-13T14:50:15.098Z,66
2022-09-13T14:55:15.107Z,67
2022-09-13T15:00:15.118Z,67
2022-09-13T15:05:15.123Z,68
2022-09-13T15:10:15.111Z,68
2022-09-13T15:15:15.130Z,68
2022-09-13T15:20:15.112Z,68
2022-09-13T15:25:15.126Z,68
2022-09-13T15:30:15.120Z,69
2022-09-13T15:35:15.113Z,69
2022-09-13T15:40:15.205Z,69
2022-09-13T15:45:15.115Z,69
2022-09-13T15:50:15.113Z,69
2022-09-13T15:55:15.112Z,70
2022-09-13T16:00:15.116Z,71
2022-09-13T16:05:15.111Z,74
2022-09-13T16:10:15.123Z,74
2022-09-13T16:15:15.118Z,75
2022-09-13T16:20:15.120Z,75
2022-09-13T16:25:15.122Z,77
2022-09-13T16:30:15.116Z,78
2022-09-13T16:35:15.114Z,78
2022-09-13T16:40:15.141Z,78
2022-09-13T16:45:15.112Z,78
2022-09-13T16:50:15.107Z,77
2022-09-13T16:55:15.137Z,76
2022-09-13T17:00:15.110Z,75
2022-09-13T17:05:15.113Z,75
2022-09-13T17:10:15.122Z,74
2022-09-13T17:15:15.273Z,74
2022-09-13T17:20:15.103Z,77
2022-09-13T17:25:15.131Z,78
2022-09-13T17:30:15.181Z,79
2022-09-13T17:35:15.104Z,80
2022-09-13T17:40:15.137Z,81
2022-09-13T17:45:15.104Z,81
2022-09-13T17:50:15.107Z,81
2022-09-13T17:55:15.121Z,81
2022-09-13T18:00:15.105Z,81
2022-09-13T18:05:15.119Z,82
2022-09-13T18:10:32.533Z,82
2022-09-13T18:15:15.103Z,81
2022-09-13T18:20:15.109Z,81
2022-09-13T18:25:15.110Z,82
2022-09-13T18:30:15.126Z,82
2022-09-13T18:35:15.129Z,82
2022-09-13T18:40:15.176Z,82
2022-09-13T18:45:15.101Z,82
2022-09-13T18:50:19.297Z,83
2022-09-13T18:55:15.101Z,83
2022-09-13T19:00:15.095Z,83
2022-09-13T19:05:15.105Z,83
2022-09-13T19:10:16.150Z,83
2022-09-13T19:15:15.100Z,83
2022-09-13T19:20:15.099Z,83
2022-09-13T19:25:15.097Z,83
2022-09-13T19:30:15.091Z,83
2022-09-13T19:35:15.101Z,83
2022-09-13T19:40:15.134Z,83
2022-09-13T19:45:15.109Z,83
2022-09-13T19:50:15.108Z,83
2022-09-13T19:55:15.107Z,83
2022-09-13T20:00:15.103Z,83
2022-09-13T20:05:15.180Z,84
2022-09-13T20:10:15.105Z,84
2022-09-13T20:15:15.105Z,84
2022-09-13T20:20:15.092Z,84
2022-09-13T20:25:15.125Z,84
2022-09-13T20:30:15.106Z,84
2022-09-13T20:35:15.105Z,84
2022-09-13T20:40:15.149Z,84
2022-09-13T20:45:15.101Z,84
2022-09-13T20:50:15.108Z,84
2022-09-13T20:55:15.104Z,84
2022-09-13T21:00:15.095Z,84
2022-09-13T21:05:15.098Z,84
2022-09-13T21:10:15.087Z,84
2022-09-13T21:15:15.107Z,84
2022-09-13T21:20:15.096Z,84
2022-09-13T21:25:15.106Z,84
2022-09-13T21:30:15.094Z,84
2022-09-13T21:35:15.096Z,84
2022-09-13T21:40:15.240Z,84
2022-09-13T21:45:15.099Z,85
2022-09-13T21:50:15.095Z,85
2022-09-13T21:55:15.101Z,85
2022-09-13T22:00:15.104Z,85
2022-09-13T22:05:15.110Z,85
2022-09-13T22:10:15.098Z,84
2022-09-13T22:15:15.102Z,84
2022-09-13T22:20:15.102Z,85
2022-09-13T22:25:15.103Z,85
2022-09-13T22:30:15.100Z,85
2022-09-13T22:35:15.116Z,85
2022-09-13T22:40:15.192Z,85
2022-09-13T22:45:15.111Z,85
2022-09-13T22:50:15.106Z,85
2022-09-13T22:55:15.103Z,85
2022-09-13T23:00:15.118Z,85
2022-09-13T23:05:15.101Z,85
2022-09-13T23:10:15.108Z,85
2022-09-13T23:15:15.109Z,84
2022-09-13T23:20:15.115Z,85
2022-09-13T23:25:15.110Z,85
2022-09-13T23:30:15.096Z,85
2022-09-13T23:35:15.104Z,85
2022-09-13T23:40:15.204Z,85
2022-09-13T23:45:15.103Z,84
2022-09-13T23:50:15.104Z,85
2022-09-13T23:55:15.112Z,85
